createdAt,value
2018-03-19T00:00:51.748Z,1019.49
2018-03-19T00:01:51.759Z,1019.50
2018-03-19T00:02:51.774Z,1019.51
2018-03-19T00:03:51.792Z,1019.51
2018-03-19T00:04:51.804Z,1019.52
2018-03-19T00:05:51.820Z,1019.50
2018-03-19T00:06:51.830Z,1019.52
2018-03-19T00:07:51.850Z,1019.53
2018-03-19T00:08:51.858Z,1019.54
2018-03-19T00:09:51.888Z,1019.53
2018-03-19T00:10:51.887Z,1019.54
2018-03-19T00:11:51.901Z,1019.50
2018-03-19T00:12:51.922Z,1019.51
2018-03-19T00:13:51.932Z,1019.47
2018-03-19T00:14:51.952Z,1019.48
2018-03-19T00:15:51.963Z,1019.49
2018-03-19T00:16:51.980Z,1019.46
2018-03-19T00:17:52.002Z,1019.51
2018-03-19T00:18:52.002Z,1019.49
2018-03-19T00:19:52.023Z,1019.46
2018-03-19T00:20:52.034Z,1019.42
2018-03-19T00:21:52.047Z,1019.44
2018-03-19T00:22:52.065Z,1019.44
2018-03-19T00:23:52.081Z,1019.43
2018-03-19T00:24:52.098Z,1019.42
2018-03-19T00:25:52.104Z,1019.44
2018-03-19T00:26:52.126Z,1019.43
2018-03-19T00:27:52.152Z,1019.40
2018-03-19T00:28:52.149Z,1019.41
2018-03-19T00:29:52.172Z,1019.40
2018-03-19T00:30:52.177Z,1019.40
2018-03-19T00:31:52.192Z,1019.39
2018-03-19T00:32:52.207Z,1019.38
2018-03-19T00:33:52.224Z,1019.38
2018-03-19T00:34:52.237Z,1019.35
2018-03-19T00:35:52.255Z,1019.34
2018-03-19T00:36:52.271Z,1019.34
2018-03-19T00:37:52.288Z,1019.29
2018-03-19T00:38:52.296Z,1019.33
2018-03-19T00:39:52.311Z,1019.34
2018-03-19T00:40:52.323Z,1019.29
2018-03-19T00:41:52.340Z,1019.29
2018-03-19T00:42:52.358Z,1019.30
2018-03-19T00:43:52.366Z,1019.25
2018-03-19T00:44:52.383Z,1019.27
2018-03-19T00:45:52.396Z,1019.24
2018-03-19T00:46:52.413Z,1019.24
2018-03-19T00:47:52.426Z,1019.22
2018-03-19T00:48:52.436Z,1019.22
2018-03-19T00:49:52.456Z,1019.21
2018-03-19T00:50:52.477Z,1019.21
2018-03-19T00:51:52.485Z,1019.19
2018-03-19T00:52:52.500Z,1019.22
2018-03-19T00:53:52.510Z,1019.19
2018-03-19T00:54:52.528Z,1019.20
2018-03-19T00:55:52.541Z,1019.14
2018-03-19T00:56:52.556Z,1019.15
2018-03-19T00:57:52.566Z,1019.16
2018-03-19T00:58:52.589Z,1019.10
2018-03-19T00:59:52.600Z,1019.15
2018-03-19T01:00:52.622Z,1019.10
2018-03-19T01:01:52.625Z,1019.10
2018-03-19T01:02:52.644Z,1019.12
2018-03-19T01:03:52.653Z,1019.09
2018-03-19T01:04:52.676Z,1019.13
2018-03-19T01:05:52.689Z,1019.07
2018-03-19T01:06:52.698Z,1019.11
2018-03-19T01:07:52.712Z,1019.11
2018-03-19T01:08:52.728Z,1019.09
2018-03-19T01:09:52.740Z,1019.05
2018-03-19T01:10:52.757Z,1019.06
2018-03-19T01:11:52.767Z,1019.01
2018-03-19T01:12:52.779Z,1019.07
2018-03-19T01:13:52.798Z,1019.03
2018-03-19T01:14:52.818Z,1019.09
2018-03-19T01:15:52.824Z,1019.03
2018-03-19T01:16:52.838Z,1019.04
2018-03-19T01:17:52.853Z,1019.03
2018-03-19T01:18:52.869Z,1019.03
2018-03-19T01:19:53.136Z,1019.01
2018-03-19T01:20:52.895Z,1019.03
2018-03-19T01:21:52.909Z,1019.04
2018-03-19T01:22:52.928Z,1019.05
2018-03-19T01:23:52.937Z,1019.03
2018-03-19T01:24:52.955Z,1019.06
2018-03-19T01:25:52.972Z,1019.08
2018-03-19T01:26:52.986Z,1019.10
2018-03-19T01:27:52.998Z,1019.06
2018-03-19T01:28:53.018Z,1019.04
2018-03-19T01:29:53.028Z,1019.05
2018-03-19T01:30:53.038Z,1019.06
2018-03-19T01:31:53.058Z,1019.08
2018-03-19T01:32:53.064Z,1019.09
2018-03-19T01:33:53.082Z,1019.09
2018-03-19T01:34:53.094Z,1019.07
2018-03-19T01:35:53.108Z,1019.06
2018-03-19T01:36:53.127Z,1019.06
2018-03-19T01:37:53.133Z,1019.05
2018-03-19T01:38:53.150Z,1019.05
2018-03-19T01:39:53.163Z,1019.07
2018-03-19T01:40:53.182Z,1019.04
2018-03-19T01:41:53.192Z,1019.02
2018-03-19T01:42:53.206Z,1019.05
2018-03-19T01:43:53.226Z,1019.07
2018-03-19T01:44:53.231Z,1019.06
2018-03-19T01:45:53.250Z,1019.07
2018-03-19T01:46:53.263Z,1019.06
2018-03-19T01:47:53.273Z,1019.06
2018-03-19T01:48:53.296Z,1019.07
2018-03-19T01:49:53.303Z,1019.05
2018-03-19T01:50:53.325Z,1019.06
2018-03-19T01:51:53.331Z,1019.06
2018-03-19T01:52:53.342Z,1019.02
2018-03-19T01:53:53.360Z,1019.01
2018-03-19T01:54:53.376Z,1019.06
2018-03-19T01:55:53.387Z,1019.03
2018-03-19T01:56:53.405Z,1018.99
2018-03-19T01:57:53.420Z,1019.01
2018-03-19T01:58:53.431Z,1018.98
2018-03-19T01:59:53.447Z,1018.99
2018-03-19T02:00:53.456Z,1019.00
2018-03-19T02:01:53.470Z,1019.02
2018-03-19T02:02:53.487Z,1019.06
2018-03-19T02:03:53.500Z,1019.04
2018-03-19T02:04:53.511Z,1019.03
2018-03-19T02:05:53.527Z,1019.01
2018-03-19T02:06:53.539Z,1018.95
2018-03-19T02:07:53.556Z,1019.00
2018-03-19T02:08:53.570Z,1018.97
2018-03-19T02:09:53.589Z,1018.98
2018-03-19T02:10:53.600Z,1018.99
2018-03-19T02:11:53.614Z,1018.91
2018-03-19T02:12:53.626Z,1018.89
2018-03-19T02:13:53.641Z,1018.90
2018-03-19T02:14:53.658Z,1018.90
2018-03-19T02:15:53.671Z,1018.90
2018-03-19T02:16:53.679Z,1018.92
2018-03-19T02:17:53.700Z,1018.90
2018-03-19T02:18:53.709Z,1018.86
2018-03-19T02:19:53.730Z,1018.86
2018-03-19T02:20:53.740Z,1018.85
2018-03-19T02:21:53.749Z,1018.84
2018-03-19T02:22:53.768Z,1018.84
2018-03-19T02:23:53.785Z,1018.80
2018-03-19T02:24:53.790Z,1018.83
2018-03-19T02:25:53.803Z,1018.82
2018-03-19T02:26:53.823Z,1018.82
2018-03-19T02:27:53.842Z,1018.85
2018-03-19T02:28:53.854Z,1018.80
2018-03-19T02:29:53.862Z,1018.82
2018-03-19T02:30:53.878Z,1018.80
2018-03-19T02:31:53.892Z,1018.80
2018-03-19T02:32:53.963Z,1018.81
2018-03-19T02:33:53.965Z,1018.83
2018-03-19T02:34:53.928Z,1018.80
2018-03-19T02:35:53.951Z,1018.77
2018-03-19T02:36:53.959Z,1018.77
2018-03-19T02:37:53.974Z,1018.79
2018-03-19T02:38:53.989Z,1018.78
2018-03-19T02:39:54.003Z,1018.77
2018-03-19T02:40:54.014Z,1018.72
2018-03-19T02:41:54.029Z,1018.76
2018-03-19T02:42:54.044Z,1018.79
2018-03-19T02:43:54.060Z,1018.80
2018-03-19T02:44:54.071Z,1018.77
2018-03-19T02:45:54.086Z,1018.76
2018-03-19T02:46:54.107Z,1018.76
2018-03-19T02:47:54.108Z,1018.73
2018-03-19T02:48:54.124Z,1018.72
2018-03-19T02:49:54.138Z,1018.76
2018-03-19T02:50:54.156Z,1018.76
2018-03-19T02:51:54.171Z,1018.73
2018-03-19T02:52:54.180Z,1018.74
2018-03-19T02:53:54.192Z,1018.69
2018-03-19T02:54:54.209Z,1018.73
2018-03-19T02:55:54.227Z,1018.77
2018-03-19T02:56:54.237Z,1018.75
2018-03-19T02:57:54.249Z,1018.74
2018-03-19T02:58:54.263Z,1018.76
2018-03-19T02:59:54.280Z,1018.75
2018-03-19T03:00:54.290Z,1018.78
2018-03-19T03:01:54.304Z,1018.76
2018-03-19T03:02:54.318Z,1018.73
2018-03-19T03:03:54.333Z,1018.73
2018-03-19T03:04:54.344Z,1018.72
2018-03-19T03:05:54.358Z,1018.74
2018-03-19T03:06:54.375Z,1018.74
2018-03-19T03:07:54.391Z,1018.74
2018-03-19T03:08:54.399Z,1018.72
2018-03-19T03:09:54.417Z,1018.74
2018-03-19T03:10:54.427Z,1018.77
2018-03-19T03:11:54.740Z,1018.76
2018-03-19T03:12:54.460Z,1018.71
2018-03-19T03:13:54.474Z,1018.75
2018-03-19T03:14:54.486Z,1018.74
2018-03-19T03:15:54.497Z,1018.82
2018-03-19T03:16:54.506Z,1018.81
2018-03-19T03:17:54.524Z,1018.80
2018-03-19T03:18:54.539Z,1018.84
2018-03-19T03:19:54.549Z,1018.77
2018-03-19T03:20:54.566Z,1018.76
2018-03-19T03:21:54.579Z,1018.77
2018-03-19T03:22:54.591Z,1018.73
2018-03-19T03:23:54.606Z,1018.74
2018-03-19T03:24:54.617Z,1018.81
2018-03-19T03:25:54.637Z,1018.80
2018-03-19T03:26:54.645Z,1018.78
2018-03-19T03:27:54.662Z,1018.82
2018-03-19T03:28:54.678Z,1018.77
2018-03-19T03:29:54.687Z,1018.79
2018-03-19T03:30:54.701Z,1018.80
2018-03-19T03:31:54.721Z,1018.79
2018-03-19T03:32:54.735Z,1018.78
2018-03-19T03:33:54.741Z,1018.74
2018-03-19T03:34:54.756Z,1018.79
2018-03-19T03:35:54.770Z,1018.80
2018-03-19T03:36:54.786Z,1018.80
2018-03-19T03:37:54.797Z,1018.82
2018-03-19T03:38:54.815Z,1018.82
2018-03-19T03:39:54.825Z,1018.80
2018-03-19T03:40:54.839Z,1018.80
2018-03-19T03:41:54.849Z,1018.81
2018-03-19T03:42:54.865Z,1018.78
2018-03-19T03:43:54.880Z,1018.78
2018-03-19T03:44:54.895Z,1018.78
2018-03-19T03:45:54.912Z,1018.78
2018-03-19T03:46:54.927Z,1018.79
2018-03-19T03:47:54.934Z,1018.85
2018-03-19T03:48:54.947Z,1018.82
2018-03-19T03:49:54.965Z,1018.79
2018-03-19T03:50:54.973Z,1018.80
2018-03-19T03:51:54.991Z,1018.78
2018-03-19T03:52:55.005Z,1018.82
2018-03-19T03:53:55.013Z,1018.85
2018-03-19T03:54:55.032Z,1018.83
2018-03-19T03:55:55.043Z,1018.82
2018-03-19T03:56:55.062Z,1018.86
2018-03-19T03:57:55.077Z,1018.82
2018-03-19T03:58:55.084Z,1018.84
2018-03-19T03:59:55.098Z,1018.83
2018-03-19T04:00:55.116Z,1018.85
2018-03-19T04:01:55.123Z,1018.86
2018-03-19T04:02:55.138Z,1018.84
2018-03-19T04:03:55.153Z,1018.90
2018-03-19T04:04:55.168Z,1018.86
2018-03-19T04:05:55.184Z,1018.88
2018-03-19T04:06:55.195Z,1018.87
2018-03-19T04:07:55.208Z,1018.87
2018-03-19T04:08:55.224Z,1018.87
2018-03-19T04:09:55.234Z,1018.91
2018-03-19T04:10:55.249Z,1018.89
2018-03-19T04:11:55.262Z,1018.91
2018-03-19T04:12:55.278Z,1018.87
2018-03-19T04:13:55.288Z,1018.89
2018-03-19T04:14:55.303Z,1018.91
2018-03-19T04:15:55.316Z,1018.89
2018-03-19T04:16:55.332Z,1018.94
2018-03-19T04:17:55.343Z,1018.91
2018-03-19T04:18:55.356Z,1018.94
2018-03-19T04:19:55.377Z,1018.94
2018-03-19T04:20:55.395Z,1018.96
2018-03-19T04:21:55.400Z,1018.94
2018-03-19T04:22:55.412Z,1018.93
2018-03-19T04:23:55.426Z,1018.93
2018-03-19T04:24:55.519Z,1018.90
2018-03-19T04:25:55.457Z,1018.89
2018-03-19T04:26:55.469Z,1018.90
2018-03-19T04:27:55.482Z,1018.91
2018-03-19T04:28:55.495Z,1018.92
2018-03-19T04:29:55.517Z,1018.91
2018-03-19T04:30:55.525Z,1018.92
2018-03-19T04:31:55.536Z,1018.92
2018-03-19T04:32:55.547Z,1018.94
2018-03-19T04:33:55.566Z,1018.94
2018-03-19T04:34:55.577Z,1018.99
2018-03-19T04:35:55.593Z,1018.99
2018-03-19T04:36:55.606Z,1018.99
2018-03-19T04:37:55.627Z,1018.97
2018-03-19T04:38:55.882Z,1018.95
2018-03-19T04:39:55.650Z,1018.94
2018-03-19T04:40:55.657Z,1018.95
2018-03-19T04:41:55.672Z,1018.91
2018-03-19T04:42:55.685Z,1018.96
2018-03-19T04:43:55.704Z,1018.95
2018-03-19T04:44:55.711Z,1018.94
2018-03-19T04:45:55.725Z,1018.91
2018-03-19T04:46:55.740Z,1018.97
2018-03-19T04:47:55.755Z,1018.97
2018-03-19T04:48:55.770Z,1018.94
2018-03-19T04:49:55.780Z,1018.93
2018-03-19T04:50:55.796Z,1018.96
2018-03-19T04:51:55.808Z,1018.97
2018-03-19T04:52:55.822Z,1018.94
2018-03-19T04:53:55.837Z,1018.93
2018-03-19T04:54:55.845Z,1018.95
2018-03-19T04:55:55.866Z,1018.87
2018-03-19T04:56:55.875Z,1018.89
2018-03-19T04:57:55.892Z,1018.88
2018-03-19T04:58:55.901Z,1018.88
2018-03-19T04:59:55.917Z,1018.90
2018-03-19T05:00:55.930Z,1018.90
2018-03-19T05:01:55.943Z,1018.87
2018-03-19T05:02:55.954Z,1018.86
2018-03-19T05:03:55.973Z,1018.85
2018-03-19T05:04:55.986Z,1018.87
2018-03-19T05:05:55.994Z,1018.88
2018-03-19T05:06:56.010Z,1018.81
2018-03-19T05:07:56.024Z,1018.77
2018-03-19T05:08:56.034Z,1018.83
2018-03-19T05:09:56.055Z,1018.79
2018-03-19T05:10:56.065Z,1018.84
2018-03-19T05:11:56.079Z,1018.86
2018-03-19T05:12:56.097Z,1018.87
2018-03-19T05:13:56.111Z,1018.89
2018-03-19T05:14:56.119Z,1018.89
2018-03-19T05:15:56.133Z,1018.87
2018-03-19T05:16:56.143Z,1018.91
2018-03-19T05:17:56.160Z,1018.92
2018-03-19T05:18:56.176Z,1018.89
2018-03-19T05:19:56.182Z,1018.94
2018-03-19T05:20:56.200Z,1018.95
2018-03-19T05:21:56.222Z,1018.94
2018-03-19T05:22:56.227Z,1018.91
2018-03-19T05:23:56.239Z,1018.93
2018-03-19T05:24:56.254Z,1018.97
2018-03-19T05:25:56.272Z,1018.97
2018-03-19T05:26:56.287Z,1018.94
2018-03-19T05:27:56.297Z,1018.94
2018-03-19T05:28:56.313Z,1018.98
2018-03-19T05:29:56.319Z,1018.97
2018-03-19T05:30:56.341Z,1018.97
2018-03-19T05:31:56.354Z,1019.01
2018-03-19T05:32:56.367Z,1019.03
2018-03-19T05:33:56.378Z,1019.00
2018-03-19T05:34:56.397Z,1019.01
2018-03-19T05:35:56.403Z,1019.03
2018-03-19T05:36:56.421Z,1019.02
2018-03-19T05:37:56.430Z,1019.01
2018-03-19T05:38:56.442Z,1019.04
2018-03-19T05:39:56.458Z,1019.02
2018-03-19T05:40:56.468Z,1019.04
2018-03-19T05:41:56.492Z,1019.02
2018-03-19T05:42:56.497Z,1019.05
2018-03-19T05:43:56.516Z,1019.01
2018-03-19T05:44:56.522Z,1019.07
2018-03-19T05:45:56.542Z,1019.03
2018-03-19T05:46:56.554Z,1019.07
2018-03-19T05:47:56.565Z,1019.09
2018-03-19T05:48:56.580Z,1019.08
2018-03-19T05:49:56.598Z,1019.08
2018-03-19T05:50:56.607Z,1019.09
2018-03-19T05:51:56.621Z,1019.08
2018-03-19T05:52:56.631Z,1019.09
2018-03-19T05:53:56.647Z,1019.12
2018-03-19T05:54:56.661Z,1019.11
2018-03-19T05:55:56.675Z,1019.11
2018-03-19T05:56:56.691Z,1019.14
2018-03-19T05:57:56.701Z,1019.10
2018-03-19T05:58:56.715Z,1019.10
2018-03-19T05:59:56.730Z,1019.11
2018-03-19T06:00:56.742Z,1019.16
2018-03-19T06:01:56.755Z,1019.14
2018-03-19T06:02:56.768Z,1019.18
2018-03-19T06:03:56.787Z,1019.18
2018-03-19T06:04:56.796Z,1019.22
2018-03-19T06:05:56.812Z,1019.23
2018-03-19T06:06:56.830Z,1019.23
2018-03-19T06:07:56.842Z,1019.19
2018-03-19T06:08:56.856Z,1019.24
2018-03-19T06:09:56.868Z,1019.27
2018-03-19T06:10:56.882Z,1019.27
2018-03-19T06:11:56.895Z,1019.27
2018-03-19T06:12:56.910Z,1019.27
2018-03-19T06:13:56.923Z,1019.30
2018-03-19T06:14:56.936Z,1019.30
2018-03-19T06:15:56.947Z,1019.29
2018-03-19T06:16:56.960Z,1019.29
2018-03-19T06:17:56.978Z,1019.29
2018-03-19T06:18:56.990Z,1019.30
2018-03-19T06:19:57.008Z,1019.28
2018-03-19T06:20:57.030Z,1019.33
2018-03-19T06:21:57.034Z,1019.30
2018-03-19T06:22:57.046Z,1019.30
2018-03-19T06:23:57.069Z,1019.32
2018-03-19T06:24:57.074Z,1019.35
2018-03-19T06:25:57.087Z,1019.33
2018-03-19T06:26:57.100Z,1019.35
2018-03-19T06:27:57.119Z,1019.37
2018-03-19T06:28:57.124Z,1019.35
2018-03-19T06:29:57.137Z,1019.32
2018-03-19T06:30:57.155Z,1019.33
2018-03-19T06:31:57.170Z,1019.32
2018-03-19T06:32:57.179Z,1019.35
2018-03-19T06:33:57.206Z,1019.33
2018-03-19T06:34:57.209Z,1019.27
2018-03-19T06:35:57.226Z,1019.28
2018-03-19T06:36:57.244Z,1019.28
2018-03-19T06:37:57.249Z,1019.26
2018-03-19T06:38:57.268Z,1019.27
2018-03-19T06:39:57.278Z,1019.24
2018-03-19T06:40:57.300Z,1019.26
2018-03-19T06:41:57.313Z,1019.24
2018-03-19T06:42:57.325Z,1019.28
2018-03-19T06:43:57.335Z,1019.26
2018-03-19T06:44:57.355Z,1019.26
2018-03-19T06:45:57.363Z,1019.23
2018-03-19T06:46:57.378Z,1019.25
2018-03-19T06:47:57.392Z,1019.27
2018-03-19T06:48:57.404Z,1019.27
2018-03-19T06:49:57.429Z,1019.28
2018-03-19T06:50:57.434Z,1019.30
2018-03-19T06:51:57.452Z,1019.31
2018-03-19T06:52:57.468Z,1019.32
2018-03-19T06:53:57.474Z,1019.35
2018-03-19T06:54:57.488Z,1019.32
2018-03-19T06:55:57.504Z,1019.31
2018-03-19T06:56:57.517Z,1019.37
2018-03-19T06:57:57.542Z,1019.38
2018-03-19T06:58:57.548Z,1019.36
2018-03-19T06:59:57.558Z,1019.44
2018-03-19T07:00:57.628Z,1019.40
2018-03-19T07:01:57.590Z,1019.42
2018-03-19T07:02:57.606Z,1019.44
2018-03-19T07:03:57.614Z,1019.41
2018-03-19T07:04:57.627Z,1019.44
2018-03-19T07:05:57.649Z,1019.38
2018-03-19T07:06:57.658Z,1019.39
2018-03-19T07:07:57.670Z,1019.37
2018-03-19T07:08:57.684Z,1019.36
2018-03-19T07:09:57.696Z,1019.38
2018-03-19T07:10:57.712Z,1019.41
2018-03-19T07:11:57.728Z,1019.41
2018-03-19T07:12:57.741Z,1019.41
2018-03-19T07:13:57.762Z,1019.46
2018-03-19T07:14:57.772Z,1019.45
2018-03-19T07:15:57.789Z,1019.48
2018-03-19T07:16:57.796Z,1019.50
2018-03-19T07:17:57.815Z,1019.55
2018-03-19T07:18:57.835Z,1019.52
2018-03-19T07:19:57.841Z,1019.56
2018-03-19T07:20:57.857Z,1019.56
2018-03-19T07:21:57.871Z,1019.57
2018-03-19T07:22:57.895Z,1019.59
2018-03-19T07:23:57.905Z,1019.59
2018-03-19T07:24:57.925Z,1019.54
2018-03-19T07:25:57.926Z,1019.56
2018-03-19T07:26:57.942Z,1019.56
2018-03-19T07:27:57.962Z,1019.58
2018-03-19T07:28:57.972Z,1019.55
2018-03-19T07:29:58.248Z,1019.56
2018-03-19T07:30:58.000Z,1019.51
2018-03-19T07:31:58.016Z,1019.52
2018-03-19T07:32:58.040Z,1019.49
2018-03-19T07:33:58.048Z,1019.48
2018-03-19T07:34:58.063Z,1019.49
2018-03-19T07:35:58.330Z,1019.50
2018-03-19T07:36:58.088Z,1019.48
2018-03-19T07:37:58.116Z,1019.43
2018-03-19T07:38:58.121Z,1019.49
2018-03-19T07:39:58.134Z,1019.45
2018-03-19T07:40:58.196Z,1019.49
2018-03-19T07:41:58.162Z,1019.44
2018-03-19T07:42:58.187Z,1019.46
2018-03-19T07:43:58.197Z,1019.44
2018-03-19T07:44:58.205Z,1019.43
2018-03-19T07:45:58.220Z,1019.49
2018-03-19T07:46:58.237Z,1019.46
2018-03-19T07:47:58.250Z,1019.46
2018-03-19T07:48:58.264Z,1019.42
2018-03-19T07:49:58.279Z,1019.48
2018-03-19T07:50:58.290Z,1019.43
2018-03-19T07:51:58.305Z,1019.44
2018-03-19T07:52:58.322Z,1019.46
2018-03-19T07:53:58.343Z,1019.43
2018-03-19T07:54:58.353Z,1019.40
2018-03-19T07:55:58.364Z,1019.43
2018-03-19T07:56:58.633Z,1019.48
2018-03-19T07:57:58.403Z,1019.46
2018-03-19T07:58:58.411Z,1019.45
2018-03-19T07:59:58.429Z,1019.42
2018-03-19T08:00:58.443Z,1019.48
2018-03-19T08:01:58.451Z,1019.49
2018-03-19T08:02:58.472Z,1019.47
2018-03-19T08:03:58.490Z,1019.47
2018-03-19T08:04:58.503Z,1019.43
2018-03-19T08:05:58.513Z,1019.45
2018-03-19T08:06:58.528Z,1019.43
2018-03-19T08:07:58.544Z,1019.42
2018-03-19T08:08:58.558Z,1019.42
2018-03-19T08:09:58.573Z,1019.40
2018-03-19T08:10:58.588Z,1019.47
2018-03-19T08:11:58.602Z,1019.47
2018-03-19T08:12:58.622Z,1019.50
2018-03-19T08:13:58.633Z,1019.48
2018-03-19T08:14:58.649Z,1019.50
2018-03-19T08:15:58.673Z,1019.48
2018-03-19T08:16:58.677Z,1019.50
2018-03-19T08:17:58.696Z,1019.48
2018-03-19T08:18:58.710Z,1019.50
2018-03-19T08:19:58.727Z,1019.51
2018-03-19T08:20:58.739Z,1019.50
2018-03-19T08:21:58.769Z,1019.53
2018-03-19T08:22:58.767Z,1019.53
2018-03-19T08:23:58.782Z,1019.54
2018-03-19T08:24:58.801Z,1019.54
2018-03-19T08:25:58.818Z,1019.51
2018-03-19T08:26:58.828Z,1019.52
2018-03-19T08:27:58.852Z,1019.49
2018-03-19T08:28:58.871Z,1019.47
2018-03-19T08:29:58.882Z,1019.54
2018-03-19T08:30:58.891Z,1019.50
2018-03-19T08:31:58.906Z,1019.53
2018-03-19T08:32:58.920Z,1019.45
2018-03-19T08:33:58.938Z,1019.46
2018-03-19T08:34:59.205Z,1019.46
2018-03-19T08:35:58.967Z,1019.41
2018-03-19T08:36:58.981Z,1019.43
2018-03-19T08:37:58.997Z,1019.41
2018-03-19T08:38:59.020Z,1019.37
2018-03-19T08:39:59.030Z,1019.39
2018-03-19T08:40:59.044Z,1019.39
2018-03-19T08:41:59.057Z,1019.37
2018-03-19T08:42:59.071Z,1019.38
2018-03-19T08:43:59.091Z,1019.36
2018-03-19T08:44:59.101Z,1019.34
2018-03-19T08:45:59.121Z,1019.35
2018-03-19T08:46:59.133Z,1019.36
2018-03-19T08:47:59.147Z,1019.34
2018-03-19T08:48:59.164Z,1019.36
2018-03-19T08:49:59.179Z,1019.35
2018-03-19T08:50:59.199Z,1019.38
2018-03-19T08:51:59.215Z,1019.35
2018-03-19T08:52:59.225Z,1019.33
2018-03-19T08:53:59.241Z,1019.32
2018-03-19T08:54:59.256Z,1019.33
2018-03-19T08:55:59.272Z,1019.33
2018-03-19T08:56:59.286Z,1019.33
2018-03-19T08:57:59.300Z,1019.33
2018-03-19T08:58:59.316Z,1019.32
2018-03-19T08:59:59.339Z,1019.35
2018-03-19T09:00:59.348Z,1019.30
2018-03-19T09:01:59.360Z,1019.35
2018-03-19T09:02:59.382Z,1019.33
2018-03-19T09:03:59.399Z,1019.32
2018-03-19T09:04:59.407Z,1019.27
2018-03-19T09:05:59.432Z,1019.30
2018-03-19T09:06:59.445Z,1019.29
2018-03-19T09:07:59.458Z,1019.28
2018-03-19T09:08:59.471Z,1019.29
2018-03-19T09:09:59.501Z,1019.28
2018-03-19T09:10:59.501Z,1019.31
2018-03-19T09:11:59.523Z,1019.29
2018-03-19T09:12:59.539Z,1019.30
2018-03-19T09:13:59.543Z,1019.26
2018-03-19T09:14:59.568Z,1019.26
2018-03-19T09:15:59.581Z,1019.25
2018-03-19T09:16:59.600Z,1019.25
2018-03-19T09:17:59.618Z,1019.26
2018-03-19T09:18:59.632Z,1019.28
2018-03-19T09:19:59.638Z,1019.24
2018-03-19T09:20:59.652Z,1019.25
2018-03-19T09:21:59.673Z,1019.27
2018-03-19T09:22:59.683Z,1019.26
2018-03-19T09:23:59.705Z,1019.28
2018-03-19T09:24:59.715Z,1019.27
2018-03-19T09:25:59.735Z,1019.23
2018-03-19T09:26:59.744Z,1019.27
2018-03-19T09:27:59.766Z,1019.24
2018-03-19T09:28:59.781Z,1019.22
2018-03-19T09:29:59.795Z,1019.25
2018-03-19T09:30:59.810Z,1019.14
2018-03-19T09:31:59.826Z,1019.17
2018-03-19T09:32:59.839Z,1019.16
2018-03-19T09:33:59.853Z,1019.16
2018-03-19T09:34:59.875Z,1019.18
2018-03-19T09:35:59.892Z,1019.12
2018-03-19T09:36:59.902Z,1019.15
2018-03-19T09:37:59.921Z,1019.14
2018-03-19T09:39:00.193Z,1019.08
2018-03-19T09:39:59.954Z,1019.09
2018-03-19T09:40:59.966Z,1019.12
2018-03-19T09:41:59.978Z,1019.14
2018-03-19T09:42:59.996Z,1019.12
2018-03-19T09:44:00.017Z,1019.10
2018-03-19T09:45:00.030Z,1019.11
2018-03-19T09:46:00.050Z,1019.10
2018-03-19T09:47:00.062Z,1019.11
2018-03-19T09:48:00.075Z,1019.08
2018-03-19T09:49:00.100Z,1019.08
2018-03-19T09:50:00.107Z,1019.14
2018-03-19T09:51:00.138Z,1019.16
2018-03-19T09:52:00.142Z,1019.13
2018-03-19T09:53:00.153Z,1019.14
2018-03-19T09:54:00.168Z,1019.14
2018-03-19T09:55:00.196Z,1019.13
2018-03-19T09:56:00.203Z,1019.11
2018-03-19T09:57:00.226Z,1019.14
2018-03-19T09:58:00.233Z,1019.07
2018-03-19T09:59:00.252Z,1019.07
2018-03-19T10:00:00.264Z,1019.10
2018-03-19T10:01:00.280Z,1019.09
2018-03-19T10:02:00.340Z,1019.09
2018-03-19T10:03:00.316Z,1019.07
2018-03-19T10:04:00.331Z,1019.05
2018-03-19T10:05:00.349Z,1019.03
2018-03-19T10:06:00.362Z,1018.97
2018-03-19T10:07:00.382Z,1018.98
2018-03-19T10:08:00.396Z,1019.00
2018-03-19T10:09:00.450Z,1019.00
2018-03-19T10:10:00.430Z,1019.00
2018-03-19T10:11:00.436Z,1019.00
2018-03-19T10:12:00.465Z,1018.98
2018-03-19T10:13:00.477Z,1018.97
2018-03-19T10:14:00.486Z,1019.01
2018-03-19T10:15:00.507Z,1018.98
2018-03-19T10:16:00.525Z,1018.94
2018-03-19T10:17:00.533Z,1018.94
2018-03-19T10:18:00.555Z,1018.88
2018-03-19T10:19:00.573Z,1018.86
2018-03-19T10:20:00.589Z,1018.87
2018-03-19T10:21:00.603Z,1018.88
2018-03-19T10:22:00.621Z,1018.84
2018-03-19T10:23:00.633Z,1018.84
2018-03-19T10:24:00.658Z,1018.83
2018-03-19T10:25:00.671Z,1018.82
2018-03-19T10:26:00.682Z,1018.82
2018-03-19T10:27:00.701Z,1018.78
2018-03-19T10:28:00.718Z,1018.78
2018-03-19T10:29:00.737Z,1018.80
2018-03-19T10:30:00.747Z,1018.78
2018-03-19T10:31:00.770Z,1018.77
2018-03-19T10:32:00.780Z,1018.76
2018-03-19T10:33:00.794Z,1018.77
2018-03-19T10:34:00.817Z,1018.72
2018-03-19T10:35:00.831Z,1018.74
2018-03-19T10:36:00.845Z,1018.75
2018-03-19T10:37:00.861Z,1018.73
2018-03-19T10:38:00.876Z,1018.72
2018-03-19T10:39:00.898Z,1018.72
2018-03-19T10:40:00.947Z,1018.76
2018-03-19T10:41:00.928Z,1018.69
2018-03-19T10:42:00.954Z,1018.75
2018-03-19T10:43:00.961Z,1018.73
2018-03-19T10:44:00.978Z,1018.69
2018-03-19T10:45:00.994Z,1018.68
2018-03-19T10:46:01.010Z,1018.71
2018-03-19T10:47:01.028Z,1018.70
2018-03-19T10:48:01.046Z,1018.71
2018-03-19T10:49:01.064Z,1018.73
2018-03-19T10:50:01.079Z,1018.73
2018-03-19T10:51:01.092Z,1018.73
2018-03-19T10:52:01.117Z,1018.77
2018-03-19T10:53:01.189Z,1018.76
2018-03-19T10:54:01.145Z,1018.75
2018-03-19T10:55:01.168Z,1018.77
2018-03-19T10:56:01.179Z,1018.83
2018-03-19T10:57:01.202Z,1018.81
2018-03-19T10:58:01.212Z,1018.81
2018-03-19T10:59:01.236Z,1018.81
2018-03-19T11:00:01.253Z,1018.83
2018-03-19T11:01:01.263Z,1018.84
2018-03-19T11:02:01.279Z,1018.84
2018-03-19T11:03:01.303Z,1018.84
2018-03-19T11:05:01.338Z,1018.66
2018-03-19T11:06:01.349Z,1018.55
2018-03-19T11:07:01.375Z,1018.59
2018-03-19T11:08:01.390Z,1018.72
2018-03-19T11:09:01.411Z,1018.75
2018-03-19T11:10:01.429Z,1018.84
2018-03-19T11:11:01.448Z,1018.88
2018-03-19T11:12:01.547Z,1018.93
2018-03-19T11:13:01.492Z,1018.99
2018-03-19T11:14:01.516Z,1019.11
2018-03-19T11:15:01.531Z,1019.07
2018-03-19T11:16:01.553Z,1019.09
2018-03-19T11:17:01.597Z,1019.13
2018-03-19T11:18:01.626Z,1019.08
2018-03-19T11:19:01.661Z,1019.14
2018-03-19T11:20:01.704Z,1019.16
2018-03-19T11:21:01.658Z,1019.22
2018-03-19T11:22:01.684Z,1019.20
2018-03-19T11:23:01.755Z,1019.23
2018-03-19T11:24:01.732Z,1019.24
2018-03-19T11:25:01.759Z,1019.26
2018-03-19T11:26:01.784Z,1019.22
2018-03-19T11:27:01.804Z,1019.29
2018-03-19T11:28:01.829Z,1019.31
2018-03-19T11:29:01.861Z,1019.27
2018-03-19T11:30:01.884Z,1019.37
2018-03-19T11:31:01.909Z,1019.41
2018-03-19T11:32:01.939Z,1019.44
2018-03-19T11:33:01.959Z,1019.49
2018-03-19T11:34:01.987Z,1019.54
2018-03-19T11:35:02.013Z,1019.64
2018-03-19T11:36:02.039Z,1019.70
2018-03-19T11:37:02.068Z,1019.79
2018-03-19T11:38:02.096Z,1019.93
2018-03-19T11:39:02.123Z,1020.10
2018-03-19T11:40:02.159Z,1020.26
2018-03-19T11:41:02.181Z,1020.36
2018-03-19T11:42:02.203Z,1020.66
2018-03-19T11:43:02.236Z,1020.99
2018-03-19T11:44:02.265Z,1021.15
2018-03-19T11:45:02.292Z,1021.42
2018-03-19T11:46:02.320Z,1021.63
2018-03-19T11:47:02.348Z,1022.44
2018-03-19T11:48:02.378Z,1022.77
2018-03-19T11:49:02.402Z,1023.12
2018-03-19T11:50:02.440Z,1023.59
2018-03-19T11:51:02.464Z,1023.87
2018-03-19T11:52:02.493Z,1023.91
2018-03-19T11:53:02.520Z,1024.84
2018-03-19T11:54:02.553Z,1026.69
2018-03-19T11:55:02.584Z,1027.59
2018-03-19T11:56:02.613Z,1028.22
2018-03-19T11:57:02.644Z,1029.55
2018-03-19T11:58:02.689Z,1031.01
2018-03-19T11:59:02.702Z,1031.28
2018-03-19T12:00:02.737Z,1031.20
2018-03-19T12:01:02.772Z,1033.49
2018-03-19T12:02:02.795Z,1035.58
2018-03-19T12:03:02.824Z,1035.08
2018-03-19T12:04:02.864Z,1034.63
2018-03-19T12:05:02.880Z,1034.74
2018-03-19T12:06:02.913Z,1034.83
2018-03-19T12:07:02.946Z,1035.17